Time;durP1;ratioP1;P1;durP2;ratioP2;P2;SDS_P1;SDS_P2;PMS_P1;PMS_P2;Temp;Humidity;BMP_temperature;BMP_pressure;BME280_temperature;BME280_humidity;BME280_pressure;Samples;Min_cycle;Max_cycle;Signal;HPM_P1;HPM_P2
2021/08/20 00:02:09;;;;;;;;;;;;;;;18.24;81.17;100058.99;1682899;84;20132;-84
2021/08/20 00:04:35;;;;;;;;;;;;;;;18.26;81.25;100060.44;1681654;84;20210;-84
2021/08/20 00:07:01;;;;;;;;;;;;;;;18.28;81.22;100066.39;1680386;84;20128;-83
2021/08/20 00:09:26;;;;;;;;;;;;;;;18.22;81.53;100061.88;1675527;84;20173;-84
2021/08/20 00:11:52;;;;;;;;;;;;;;;18.28;81.50;100069.06;1680957;84;21106;-83
2021/08/20 00:14:18;;;;;;;;;;;;;;;18.26;81.70;100065.78;1678356;84;20470;-84
2021/08/20 00:16:43;;;;;;;;;;;;;;;18.31;81.63;100071.84;1682751;84;20160;-85
2021/08/20 00:19:09;;;;;;;;;;;;;;;18.23;81.94;100069.40;1683484;83;20894;-85
2021/08/20 00:21:35;;;;;;;;;;;;;;;18.18;82.29;100070.02;1682879;83;20277;-86
2021/08/20 00:24:01;;;;;;;;;;;;;;;18.10;82.51;100071.55;1662173;84;21209;-86
2021/08/20 00:26:26;;;;;;;;;;;;;;;18.05;83.02;100074.04;1678897;83;20253;-86
2021/08/20 00:28:52;;;;;;;;;;;;;;;18.06;82.98;100072.50;1680192;84;20128;-85
2021/08/20 00:31:18;;;;;;;;;;;;;;;18.01;83.02;100070.97;1681645;84;20768;-85
2021/08/20 00:33:43;;;;;;;;;;;;;;;18.04;82.90;100072.41;1675372;84;20195;-85
2021/08/20 00:36:10;;;;;;;;;;;;;;;18.06;82.80;100075.69;1677235;83;21071;-86
2021/08/20 00:38:38;;;;;;;;;;;;;;;17.99;83.15;100075.70;1680424;84;20158;-86
2021/08/20 00:41:14;;;;;;;;;;;;;;;17.89;83.80;100073.43;1678142;84;20213;-86
2021/08/20 00:43:41;;;;;;;;;;;;;;;17.82;83.97;100071.27;1678946;84;20244;-86
2021/08/20 00:46:07;;;;;;;;;;;;;;;17.83;83.83;100074.22;1680354;84;20150;-85
2021/08/20 00:48:35;;;;;;;;;;;;;;;17.94;83.47;100079.00;1682958;84;21854;-86
2021/08/20 00:51:04;;;;;;;;;;;;;;;17.91;83.70;100083.91;1680972;84;20180;-86
2021/08/20 00:53:30;;;;;;;;;;;;;;;17.94;83.46;100077.66;1674181;84;20131;-86
2021/08/20 00:55:59;;;;;;;;;;;;;;;17.93;83.55;100080.02;1677202;84;20842;-86
2021/08/20 00:58:29;;;;;;;;;;;;;;;17.91;83.65;100082.08;1681997;83;20206;-85
2021/08/20 01:00:57;;;;;;;;;;;;;;;17.91;83.75;100082.58;1676155;84;20707;-84
2021/08/20 01:03:24;;;;;;;;;;;;;;;17.87;83.81;100078.13;1673604;84;20484;-84
2021/08/20 01:05:53;;;;;;;;;;;;;;;17.83;83.96;100074.22;1683406;83;20546;-85
2021/08/20 01:08:22;;;;;;;;;;;;;;;17.90;83.83;100079.09;1691064;83;20583;-85
2021/08/20 01:10:51;;;;;;;;;;;;;;;17.83;84.06;100077.42;1653316;84;20529;-85
2021/08/20 01:13:19;;;;;;;;;;;;;;;17.82;83.94;100074.42;1658997;84;22328;-85
2021/08/20 01:15:49;;;;;;;;;;;;;;;17.72;84.53;100068.17;1675669;84;20254;-84
2021/08/20 01:18:31;;;;;;;;;;;;;;;17.59;85.16;100079.15;1675150;84;20178;-84
2021/08/20 01:20:57;;;;;;;;;;;;;;;17.49;85.73;100078.72;1643701;86;20536;-83
2021/08/20 01:23:23;;;;;;;;;;;;;;;17.51;85.77;100082.02;1645980;85;20466;-84
2021/08/20 01:25:49;;;;;;;;;;;;;;;17.48;85.80;100082.43;1645305;85;22582;-84
2021/08/20 01:28:14;;;;;;;;;;;;;;;17.52;85.71;100086.31;1645853;85;20145;-84
2021/08/20 01:30:42;;;;;;;;;;;;;;;17.48;85.79;100090.44;1641537;86;20172;-85
2021/08/20 01:33:07;;;;;;;;;;;;;;;17.36;86.59;100089.39;1643938;86;20212;-84
2021/08/20 01:35:34;;;;;;;;;;;;;;;17.28;87.41;100089.59;1643773;86;20169;-85
2021/08/20 01:38:00;;;;;;;;;;;;;;;17.32;87.18;100090.80;1643604;86;20975;-86
2021/08/20 01:40:26;;;;;;;;;;;;;;;17.30;87.26;100094.20;1646016;85;20274;-85
2021/08/20 01:42:51;;;;;;;;;;;;;;;17.19;87.88;100091.08;1626818;86;20133;-83
2021/08/20 01:45:17;;;;;;;;;;;;;;;17.17;88.04;100087.80;1642025;85;20771;-83
2021/08/20 01:47:43;;;;;;;;;;;;;;;17.20;87.92;100087.92;1647039;85;20144;-84
2021/08/20 01:50:10;;;;;;;;;;;;;;;17.27;87.74;100082.07;1646620;85;21072;-83
2021/08/20 01:52:36;;;;;;;;;;;;;;;17.20;87.96;100083.91;1645074;85;20205;-83
2021/08/20 01:55:03;;;;;;;;;;;;;;;17.13;88.38;100086.55;1645546;85;20160;-84
2021/08/20 01:57:30;;;;;;;;;;;;;;;17.10;88.78;100084.28;1645336;86;20178;-84
2021/08/20 01:59:57;;;;;;;;;;;;;;;17.13;88.59;100083.06;1647903;86;20185;-84
2021/08/20 02:02:23;;;;;;;;;;;;;;;17.04;89.15;100075.73;1642976;86;21865;-84
2021/08/20 02:04:48;;;;;;;;;;;;;;;16.90;90.10;100082.88;1647116;85;20146;-84
2021/08/20 02:07:14;;;;;;;;;;;;;;;16.90;90.28;100085.54;1642289;85;20157;-85
2021/08/20 02:09:40;;;;;;;;;;;;;;;16.95;90.22;100084.94;1647916;85;20791;-87
2021/08/20 02:12:06;;;;;;;;;;;;;;;16.85;90.56;100080.77;1644105;86;20198;-84
2021/08/20 02:14:31;;;;;;;;;;;;;;;16.74;91.30;100082.68;1645208;85;21078;-84
2021/08/20 02:16:57;;;;;;;;;;;;;;;16.74;91.38;100073.34;1625515;86;20464;-85
2021/08/20 02:19:24;;;;;;;;;;;;;;;16.74;91.52;100073.34;1661934;84;20457;-86
2021/08/20 02:21:50;;;;;;;;;;;;;;;16.78;91.31;100075.94;1679583;83;20548;-86
2021/08/20 02:24:15;;;;;;;;;;;;;;;16.68;91.95;100080.80;1675564;84;20172;-86
2021/08/20 02:26:41;;;;;;;;;;;;;;;16.73;91.83;100082.36;1677668;84;21376;-86
2021/08/20 02:29:07;;;;;;;;;;;;;;;16.77;91.50;100087.62;1677580;84;20144;-86
2021/08/20 02:31:32;;;;;;;;;;;;;;;16.79;91.37;100084.23;1681866;83;20849;-87
2021/08/20 02:33:58;;;;;;;;;;;;;;;16.74;91.54;100082.68;1680463;84;20710;-86
2021/08/20 02:36:23;;;;;;;;;;;;;;;16.77;91.45;100080.95;1678704;84;20133;-86
2021/08/20 02:38:49;;;;;;;;;;;;;;;16.76;91.37;100076.62;1681583;84;21097;-84
2021/08/20 02:41:18;;;;;;;;;;;;;;;16.75;91.60;100080.34;1677355;84;20627;-85
2021/08/20 02:43:44;;;;;;;;;;;;;;;16.78;91.67;100081.77;1684565;84;20555;-85
2021/08/20 02:46:10;;;;;;;;;;;;;;;16.69;91.87;100082.46;1677986;84;20182;-85
2021/08/20 02:48:38;;;;;;;;;;;;;;;16.67;92.09;100083.99;1682325;83;21112;-85
2021/08/20 02:51:06;;;;;;;;;;;;;;;16.69;92.06;100082.46;1649217;85;20533;-85
2021/08/20 02:53:31;;;;;;;;;;;;;;;16.71;91.99;100087.08;1676533;84;20119;-84
2021/08/20 02:55:59;;;;;;;;;;;;;;;16.65;92.32;100081.20;1677471;83;20179;-85
2021/08/20 02:58:25;;;;;;;;;;;;;;;16.63;92.37;100089.39;1673621;84;20185;-85
2021/08/20 03:00:51;;;;;;;;;;;;;;;16.62;92.26;100086.92;1681106;83;20173;-85
2021/08/20 03:03:18;;;;;;;;;;;;;;;16.70;92.17;100090.75;1673747;84;21190;-85
2021/08/20 03:05:44;;;;;;;;;;;;;;;16.66;92.24;100084.19;1681020;84;20159;-85
2021/08/20 03:08:11;;;;;;;;;;;;;;;16.69;92.00;100084.61;1675053;84;20285;-84
2021/08/20 03:10:37;;;;;;;;;;;;;;;16.65;92.20;100089.20;1679821;83;20166;-85
2021/08/20 03:13:03;;;;;;;;;;;;;;;16.59;92.43;100095.31;1682874;83;20164;-84
2021/08/20 03:15:29;;;;;;;;;;;;;;;16.57;92.62;100086.70;1677581;84;21248;-83
2021/08/20 03:17:54;;;;;;;;;;;;;;;16.49;92.75;100083.17;1678739;84;20425;-83
2021/08/20 03:20:20;;;;;;;;;;;;;;;16.50;92.89;100085.34;1653300;84;20174;-83
2021/08/20 03:22:45;;;;;;;;;;;;;;;16.50;93.03;100091.48;1647169;85;20139;-83
2021/08/20 03:25:11;;;;;;;;;;;;;;;16.55;92.71;100096.75;1642418;85;20547;-83
2021/08/20 03:27:39;;;;;;;;;;;;;;;16.54;92.83;100091.09;1647576;85;21156;-82
2021/08/20 03:30:05;;;;;;;;;;;;;;;16.51;92.62;100095.81;1641701;85;20184;-83
2021/08/20 03:32:33;;;;;;;;;;;;;;;16.40;93.27;100096.34;1643416;85;20179;-83
2021/08/20 03:34:58;;;;;;;;;;;;;;;16.39;93.39;100093.38;1647296;85;20202;-83
2021/08/20 03:37:24;;;;;;;;;;;;;;;16.38;93.59;100095.72;1641603;85;20475;-83
2021/08/20 03:39:49;;;;;;;;;;;;;;;16.30;94.02;100095.36;1643938;85;21843;-83
2021/08/20 03:42:15;;;;;;;;;;;;;;;16.35;94.04;100089.97;1651333;85;20161;-82
2021/08/20 03:44:42;;;;;;;;;;;;;;;16.38;93.74;100089.05;1646773;85;20614;-82
2021/08/20 03:47:09;;;;;;;;;;;;;;;16.41;93.64;100086.00;1640800;85;20215;-85
2021/08/20 03:49:38;;;;;;;;;;;;;;;16.47;93.29;100085.22;1636907;85;20222;-85
2021/08/20 03:52:07;;;;;;;;;;;;;;;16.47;93.09;100086.55;1640643;85;20188;-84
2021/08/20 03:54:35;;;;;;;;;;;;;;;16.46;93.06;100090.23;1640784;85;20143;-85
2021/08/20 03:57:01;;;;;;;;;;;;;;;16.47;93.05;100091.88;1637994;85;20196;-85
2021/08/20 03:59:26;;;;;;;;;;;;;;;16.54;92.81;100090.58;1648598;85;20534;-83
2021/08/20 04:01:52;;;;;;;;;;;;;;;16.61;92.46;100094.59;1641848;85;20180;-85
2021/08/20 04:04:18;;;;;;;;;;;;;;;16.60;92.33;100098.31;1651540;85;21164;-86
2021/08/20 04:06:43;;;;;;;;;;;;;;;16.50;92.77;100099.48;1645938;84;20487;-86
2021/08/20 04:09:09;;;;;;;;;;;;;;;16.55;92.74;100091.42;1647750;85;20210;-86
2021/08/20 04:11:35;;;;;;;;;;;;;;;16.52;93.02;100093.95;1647425;85;20131;-86
2021/08/20 04:14:03;;;;;;;;;;;;;;;16.58;92.83;100096.33;1653396;85;20154;-86
2021/08/20 04:16:30;;;;;;;;;;;;;;;16.50;93.09;100098.16;1641713;85;21152;-86
2021/08/20 04:18:56;;;;;;;;;;;;;;;16.59;93.09;100104.65;1645437;85;20123;-84
2021/08/20 04:21:22;;;;;;;;;;;;;;;16.50;93.08;100098.16;1645915;85;20141;-84
2021/08/20 04:23:48;;;;;;;;;;;;;;;16.44;93.57;100101.60;1642039;86;20747;-84
2021/08/20 04:26:14;;;;;;;;;;;;;;;16.41;94.08;100104.66;1646962;86;20145;-85
2021/08/20 04:28:40;;;;;;;;;;;;;;;16.39;94.29;100102.70;1643389;86;21362;-84
2021/08/20 04:31:05;;;;;;;;;;;;;;;16.43;94.14;100102.61;1644193;85;20214;-85
2021/08/20 04:33:31;;;;;;;;;;;;;;;16.46;94.21;100111.55;1647014;85;20198;-85
2021/08/20 04:35:56;;;;;;;;;;;;;;;16.49;94.37;100113.82;1648678;86;20180;-85
2021/08/20 04:38:22;;;;;;;;;;;;;;;16.57;93.90;100109.36;1644338;86;20132;-84
2021/08/20 04:40:47;;;;;;;;;;;;;;;16.61;93.72;100111.93;1646078;85;21154;-85
2021/08/20 04:43:13;;;;;;;;;;;;;;;16.58;94.04;100116.32;1636876;85;20511;-85
2021/08/20 04:45:39;;;;;;;;;;;;;;;16.65;93.87;100109.20;1643703;86;20184;-85
2021/08/20 04:48:04;;;;;;;;;;;;;;;16.72;93.57;100115.40;1647059;85;20399;-85
2021/08/20 04:50:30;;;;;;;;;;;;;;;16.75;93.44;100115.49;1644379;86;20169;-85
2021/08/20 04:52:56;;;;;;;;;;;;;;;16.81;93.24;100116.03;1646037;84;21166;-85
2021/08/20 04:55:22;;;;;;;;;;;;;;;16.85;93.31;100111.97;1644588;85;20200;-85
2021/08/20 04:57:47;;;;;;;;;;;;;;;16.82;93.23;100111.84;1643956;86;20165;-85
2021/08/20 05:00:13;;;;;;;;;;;;;;;16.83;93.38;100114.02;1643143;86;20491;-85
2021/08/20 05:02:40;;;;;;;;;;;;;;;16.86;93.36;100116.31;1640845;85;20226;-84
2021/08/20 05:05:07;;;;;;;;;;;;;;;16.94;93.17;100115.33;1642947;85;21102;-85
2021/08/20 05:07:37;;;;;;;;;;;;;;;17.07;92.71;100112.69;1641731;85;20226;-85
2021/08/20 05:10:12;;;;;;;;;;;;;;;17.04;92.77;100110.42;1640643;85;20188;-82
2021/08/20 05:12:41;;;;;;;;;;;;;;;17.03;92.96;100112.28;1647444;85;20192;-86
2021/08/20 05:15:07;;;;;;;;;;;;;;;17.18;92.54;100112.63;1646280;85;20542;-86
2021/08/20 05:17:33;;;;;;;;;;;;;;;17.31;92.26;100109.16;1643035;85;21279;-86
2021/08/20 05:20:00;;;;;;;;;;;;;;;17.40;91.71;100109.30;1653700;85;20273;-87
2021/08/20 05:22:26;;;;;;;;;;;;;;;17.52;91.27;100113.02;1675562;84;20225;-86
2021/08/20 05:24:51;;;;;;;;;;;;;;;17.58;91.06;100105.53;1674525;84;20523;-86
2021/08/20 05:27:17;;;;;;;;;;;;;;;17.62;90.54;100103.79;1679890;84;20279;-85
2021/08/20 05:29:43;;;;;;;;;;;;;;;17.63;90.79;100102.25;1675561;84;21142;-84
2021/08/20 05:32:08;;;;;;;;;;;;;;;17.68;90.65;100104.31;1676111;84;20399;-82
2021/08/20 05:34:36;;;;;;;;;;;;;;;17.67;90.55;100096.02;1677477;84;20145;-83
2021/08/20 05:37:03;;;;;;;;;;;;;;;17.76;90.53;100100.12;1675253;84;20183;-83
2021/08/20 05:39:29;;;;;;;;;;;;;;;17.94;90.26;100105.72;1677444;84;20223;-84
2021/08/20 05:41:54;;;;;;;;;;;;;;;17.92;90.08;100106.41;1670824;83;21127;-83
2021/08/20 05:44:20;;;;;;;;;;;;;;;18.07;89.65;100106.71;1676320;85;20305;-84
2021/08/20 05:46:46;;;;;;;;;;;;;;;18.20;89.42;100104.04;1678664;84;20155;-83
2021/08/20 05:49:11;;;;;;;;;;;;;;;18.20;89.01;100104.04;1679854;83;21165;-85
2021/08/20 05:51:38;;;;;;;;;;;;;;;18.28;89.13;100109.16;1650187;83;20146;-84
2021/08/20 05:54:04;;;;;;;;;;;;;;;18.33;88.75;100111.73;1676041;85;21072;-86
2021/08/20 05:56:32;;;;;;;;;;;;;;;18.48;88.73;100110.98;1679903;83;21212;-85
2021/08/20 05:58:58;;;;;;;;;;;;;;;18.61;87.80;100110.97;1681513;83;20516;-86
2021/08/20 06:01:24;;;;;;;;;;;;;;;18.72;87.36;100114.00;1659700;84;20125;-86
2021/08/20 06:03:50;;;;;;;;;;;;;;;18.78;86.97;100115.84;1681156;83;20150;-84
2021/08/20 06:06:15;;;;;;;;;;;;;;;18.90;86.65;100110.16;1678581;83;21201;-85
2021/08/20 06:08:43;;;;;;;;;;;;;;;19.04;86.34;100114.14;1680594;85;20535;-86
2021/08/20 06:11:09;;;;;;;;;;;;;;;19.16;85.65;100116.45;1679919;83;20206;-87
2021/08/20 06:13:34;;;;;;;;;;;;;;;19.31;85.35;100110.79;1677779;83;20656;-86
2021/08/20 06:16:00;;;;;;;;;;;;;;;19.47;85.12;100116.18;1680825;83;20150;-90
2021/08/20 06:18:26;;;;;;;;;;;;;;;19.55;82.88;100121.27;1675272;84;21154;-90
2021/08/20 06:20:54;;;;;;;;;;;;;;;19.60;82.37;100118.75;1684384;82;20276;-85
2021/08/20 06:23:19;;;;;;;;;;;;;;;19.65;82.39;100124.27;1680816;83;21107;-88
2021/08/20 06:25:45;;;;;;;;;;;;;;;19.76;82.12;100124.63;1660423;84;20122;-86
2021/08/20 06:28:14;;;;;;;;;;;;;;;19.87;80.70;100124.79;1678328;83;20160;-83
2021/08/20 06:30:45;;;;;;;;;;;;;;;19.95;80.05;100121.02;1681875;83;21239;-84
2021/08/20 06:33:08;;;;;;;;;;;;;;;19.97;79.33;100124.81;1676925;84;20170;-84
2021/08/20 06:35:34;;;;;;;;;;;;;;;20.01;79.23;100128.19;1680694;84;20163;-84
2021/08/20 06:37:59;;;;;;;;;;;;;;;20.08;79.29;100128.93;1682910;84;20469;-84
2021/08/20 06:40:25;;;;;;;;;;;;;;;20.38;77.95;100132.27;1679979;84;20151;-85
2021/08/20 06:42:53;;;;;;;;;;;;;;;20.51;77.62;100132.67;1682940;84;21121;-84
2021/08/20 06:45:18;;;;;;;;;;;;;;;20.39;77.77;100131.23;1684959;83;20233;-84
2021/08/20 06:47:44;;;;;;;;;;;;;;;20.41;76.94;100135.84;1678520;84;20591;-84
2021/08/20 06:50:11;;;;;;;;;;;;;;;20.40;76.60;100128.86;1679125;84;20195;-84
2021/08/20 06:52:40;;;;;;;;;;;;;;;20.53;76.84;100132.45;1679991;84;20995;-84
2021/08/20 06:55:06;;;;;;;;;;;;;;;20.39;76.17;100137.94;1679221;84;20195;-84
2021/08/20 06:57:33;;;;;;;;;;;;;;;20.42;77.14;100142.05;1665487;84;20201;-84
2021/08/20 07:00:00;;;;;;;;;;;;;;;20.44;76.69;100144.79;1660384;83;20250;-84
2021/08/20 07:02:28;;;;;;;;;;;;;;;20.42;75.85;100145.54;1679454;83;20500;-84
2021/08/20 07:04:54;;;;;;;;;;;;;;;20.17;76.91;100148.25;1673942;83;20279;-84
2021/08/20 07:07:19;;;;;;;;;;;;;;;20.18;77.69;100144.54;1677614;84;22189;-84
2021/08/20 07:09:45;;;;;;;;;;;;;;;20.41;77.72;100143.89;1677241;84;20208;-86
2021/08/20 07:12:11;;;;;;;;;;;;;;;20.56;76.80;100150.78;1677752;84;20142;-86
2021/08/20 07:14:37;;;;;;;;;;;;;;;20.48;76.71;100149.71;1657416;84;20261;-84
2021/08/20 07:17:02;;;;;;;;;;;;;;;20.48;75.51;100149.21;1662833;83;20183;-84
2021/08/20 07:19:29;;;;;;;;;;;;;;;20.58;75.43;100158.08;1652085;84;21593;-85
2021/08/20 07:22:00;;;;;;;;;;;;;;;20.69;75.04;100157.37;1658039;84;20162;-85
2021/08/20 07:24:26;;;;;;;;;;;;;;;20.73;74.04;100151.86;1681576;85;20110;-84
2021/08/20 07:26:53;;;;;;;;;;;;;;;20.82;73.97;100148.87;1679090;85;20483;-85
2021/08/20 07:29:22;;;;;;;;;;;;;;;20.73;74.46;100147.84;1677662;85;20480;-86
2021/08/20 07:31:48;;;;;;;;;;;;;;;20.69;75.30;100160.58;1674944;85;21979;-85
2021/08/20 07:34:15;;;;;;;;;;;;;;;20.82;75.52;100156.92;1657043;85;20139;-84
2021/08/20 07:36:42;;;;;;;;;;;;;;;20.95;75.47;100160.81;1674579;84;20229;-85
2021/08/20 07:39:07;;;;;;;;;;;;;;;20.88;75.58;100164.08;1670693;84;20203;-85
2021/08/20 07:41:33;;;;;;;;;;;;;;;20.83;75.94;100165.28;1674756;83;20142;-87
2021/08/20 07:44:00;;;;;;;;;;;;;;;20.87;76.12;100167.30;1673325;84;21190;-86
2021/08/20 07:46:27;;;;;;;;;;;;;;;20.63;77.29;100175.66;1677420;85;20445;-86
2021/08/20 07:48:53;;;;;;;;;;;;;;;20.64;77.12;100178.66;1677328;85;20189;-83
2021/08/20 07:51:21;;;;;;;;;;;;;;;20.64;76.60;100186.70;1680910;84;21147;-84
2021/08/20 07:53:47;;;;;;;;;;;;;;;20.62;76.03;100184.78;1677514;85;21003;-85
2021/08/20 07:56:13;;;;;;;;;;;;;;;20.70;75.35;100191.75;1663531;84;21024;-85
2021/08/20 07:58:41;;;;;;;;;;;;;;;20.43;75.72;100183.41;1680720;84;20221;-85
2021/08/20 08:01:07;;;;;;;;;;;;;;;20.38;74.77;100187.25;1680234;84;20155;-83
2021/08/20 08:03:34;;;;;;;;;;;;;;;20.36;75.81;100193.36;1679341;84;20129;-84
2021/08/20 08:06:00;;;;;;;;;;;;;;;20.52;75.61;100181.77;1676637;83;21328;-83
2021/08/20 08:08:27;;;;;;;;;;;;;;;20.41;74.41;100193.51;1671198;84;21036;-83
2021/08/20 08:10:54;;;;;;;;;;;;;;;20.45;74.51;100193.37;1663726;85;20187;-82
2021/08/20 08:13:20;;;;;;;;;;;;;;;20.42;73.62;100195.16;1655845;85;20136;-83
2021/08/20 08:15:49;;;;;;;;;;;;;;;20.44;74.19;100193.07;1676494;85;20179;-81
2021/08/20 08:18:15;;;;;;;;;;;;;;;20.60;74.11;100186.84;1676469;85;20177;-81
2021/08/20 08:20:42;;;;;;;;;;;;;;;20.54;73.57;100195.27;1676561;85;21143;-82
2021/08/20 08:23:08;;;;;;;;;;;;;;;20.60;74.05;100197.58;1680170;84;20190;-82
2021/08/20 08:25:34;;;;;;;;;;;;;;;20.60;74.34;100197.58;1655016;84;20498;-83
2021/08/20 08:28:01;;;;;;;;;;;;;;;20.69;73.78;100212.38;1677618;84;21193;-85
2021/08/20 08:30:30;;;;;;;;;;;;;;;20.80;73.55;100206.30;1677166;85;20215;-83
2021/08/20 08:32:58;;;;;;;;;;;;;;;20.69;73.95;100201.64;1672840;84;21226;-85
2021/08/20 08:35:24;;;;;;;;;;;;;;;20.71;73.84;100203.61;1651805;85;20204;-84
2021/08/20 08:37:51;;;;;;;;;;;;;;;20.61;74.77;100205.94;1675133;85;20366;-84
2021/08/20 08:40:21;;;;;;;;;;;;;;;20.59;75.17;100209.38;1674614;84;20265;-83
2021/08/20 08:42:50;;;;;;;;;;;;;;;20.80;75.24;100203.62;1674670;85;20206;-82
2021/08/20 08:45:15;;;;;;;;;;;;;;;20.74;74.98;100210.37;1677248;85;21197;-83
2021/08/20 08:47:41;;;;;;;;;;;;;;;20.50;75.87;100202.64;1677072;84;20489;-83
2021/08/20 08:50:07;;;;;;;;;;;;;;;20.68;75.86;100209.41;1679830;85;20166;-82
2021/08/20 08:52:33;;;;;;;;;;;;;;;20.61;75.64;100208.62;1678920;85;20211;-82
2021/08/20 08:55:05;;;;;;;;;;;;;;;20.53;76.37;100210.25;1658896;84;20400;-81
2021/08/20 08:57:31;;;;;;;;;;;;;;;20.56;76.25;100212.49;1679364;84;21069;-82
2021/08/20 08:59:59;;;;;;;;;;;;;;;20.55;76.79;100214.33;1677071;84;20743;-82
2021/08/20 09:02:25;;;;;;;;;;;;;;;20.82;75.97;100220.00;1680351;84;20127;-82
2021/08/20 09:04:58;;;;;;;;;;;;;;;20.69;75.59;100220.96;1677958;84;20187;-85
2021/08/20 09:07:24;;;;;;;;;;;;;;;20.81;76.28;100223.22;1656945;85;20210;-84
2021/08/20 09:10:19;;;;;;;;;;;;;;;20.98;74.99;100224.80;1656415;85;21025;-82
2021/08/20 09:13:00;;;;;;;;;;;;;;;20.83;74.82;100220.31;1674682;85;20134;-84
2021/08/20 09:15:31;;;;;;;;;;;;;;;20.94;75.04;100220.91;1687898;83;20171;-85
2021/08/20 09:17:59;;;;;;;;;;;;;;;20.84;75.65;100213.91;1678801;84;20148;-85
2021/08/20 09:20:27;;;;;;;;;;;;;;;21.10;75.65;100213.61;1680179;83;20218;-85
2021/08/20 09:22:55;;;;;;;;;;;;;;;21.10;74.60;100212.27;1677954;84;21065;-86
2021/08/20 09:25:38;;;;;;;;;;;;;;;21.36;73.77;100217.01;1681798;83;20143;-83
2021/08/20 09:28:17;;;;;;;;;;;;;;;21.45;73.20;100212.16;1683148;85;20182;-84
2021/08/20 09:31:00;;;;;;;;;;;;;;;21.40;73.20;100212.03;1665011;83;20865;-84
2021/08/20 09:33:31;;;;;;;;;;;;;;;21.58;72.17;100212.53;1679959;85;20221;-83
2021/08/20 09:36:13;;;;;;;;;;;;;;;21.64;72.20;100208.94;1675317;85;20207;-85
2021/08/20 09:38:45;;;;;;;;;;;;;;;21.65;71.87;100212.73;1682112;85;20123;-85
2021/08/20 09:41:14;;;;;;;;;;;;;;;21.77;70.35;100199.35;1679114;84;20511;-85
2021/08/20 09:43:42;;;;;;;;;;;;;;;21.69;70.09;100194.31;1676004;83;20091;-85
2021/08/20 09:46:09;;;;;;;;;;;;;;;21.73;70.59;100191.97;1683556;85;20207;-84
2021/08/20 09:48:47;;;;;;;;;;;;;;;21.72;69.99;100187.13;1681903;85;21129;-84
2021/08/20 09:51:39;;;;;;;;;;;;;;;21.64;70.26;100204.91;1676476;85;20113;-84
2021/08/20 09:54:11;;;;;;;;;;;;;;;21.50;71.47;100197.04;1679598;84;20210;-84
2021/08/20 09:56:37;;;;;;;;;;;;;;;21.47;70.99;100197.46;1677837;83;20271;-84
2021/08/20 09:59:05;;;;;;;;;;;;;;;21.27;72.02;100191.00;1681783;83;20319;-84
2021/08/20 10:01:33;;;;;;;;;;;;;;;21.34;72.37;100185.53;1675796;84;21967;-84
2021/08/20 10:04:00;;;;;;;;;;;;;;;21.47;72.68;100184.03;1677158;84;20304;-85
2021/08/20 10:06:28;;;;;;;;;;;;;;;21.63;72.61;100179.09;1680696;85;20555;-85
2021/08/20 10:08:54;;;;;;;;;;;;;;;21.77;72.69;100179.19;1681045;85;20204;-87
2021/08/20 10:11:19;;;;;;;;;;;;;;;21.64;71.84;100177.52;1679708;85;20184;-84
2021/08/20 10:13:48;;;;;;;;;;;;;;;21.49;71.48;100178.46;1680262;85;21258;-85
2021/08/20 10:16:13;;;;;;;;;;;;;;;21.32;72.50;100179.05;1642797;85;20167;-85
2021/08/20 10:18:41;;;;;;;;;;;;;;;21.41;72.45;100178.72;1678301;84;20151;-84
2021/08/20 10:21:12;;;;;;;;;;;;;;;21.46;72.50;100189.09;1678537;85;20142;-87
2021/08/20 10:23:41;;;;;;;;;;;;;;;21.47;72.68;100182.69;1669089;85;38028;-83
2021/08/20 10:26:09;;;;;;;;;;;;;;;21.66;72.41;100174.61;1684076;85;21138;-86
2021/08/20 10:28:35;;;;;;;;;;;;;;;21.95;72.04;100178.81;1679752;85;20250;-84
2021/08/20 10:31:02;;;;;;;;;;;;;;;22.02;71.21;100183.04;1680457;85;20146;-85
2021/08/20 10:33:35;;;;;;;;;;;;;;;21.90;71.54;100181.39;1679439;84;20199;-84
2021/08/20 10:36:02;;;;;;;;;;;;;;;22.00;70.94;100181.62;1673979;85;20210;-83
2021/08/20 10:38:43;;;;;;;;;;;;;;;21.92;69.95;100179.27;1660063;85;21215;-85
2021/08/20 10:41:17;;;;;;;;;;;;;;;21.92;71.14;100184.66;1680506;85;20339;-84
2021/08/20 10:44:02;;;;;;;;;;;;;;;21.99;70.60;100174.62;1683041;83;20151;-84
2021/08/20 10:46:45;;;;;;;;;;;;;;;22.18;70.12;100173.47;1677405;84;20187;-83
2021/08/20 10:49:20;;;;;;;;;;;;;;;22.24;68.86;100175.77;1679634;85;20207;-85
2021/08/20 10:51:55;;;;;;;;;;;;;;;22.29;69.42;100172.37;1682976;84;21240;-84
2021/08/20 10:54:33;;;;;;;;;;;;;;;22.34;68.83;100172.01;1679155;83;20244;-85
2021/08/20 10:57:01;;;;;;;;;;;;;;;22.57;68.64;100168.47;1678919;85;20173;-84
2021/08/20 10:59:43;;;;;;;;;;;;;;;22.42;68.90;100168.16;1680634;83;20712;-82
2021/08/20 11:02:25;;;;;;;;;;;;;;;22.61;68.51;100159.92;1681042;84;20180;-84
2021/08/20 11:05:06;;;;;;;;;;;;;;;22.68;68.31;100161.98;1680215;84;22221;-83
2021/08/20 11:07:38;;;;;;;;;;;;;;;22.63;68.40;100160.53;1676333;84;20163;-85
2021/08/20 11:10:16;;;;;;;;;;;;;;;22.89;67.37;100159.20;1678123;85;20240;-83
2021/08/20 11:12:47;;;;;;;;;;;;;;;22.63;67.75;100163.22;1678724;83;20744;-82
2021/08/20 11:15:26;;;;;;;;;;;;;;;22.69;68.35;100165.78;1680943;83;20498;-83
2021/08/20 11:17:56;;;;;;;;;;;;;;;22.65;67.89;100155.72;1681969;83;21128;-82
2021/08/20 11:20:45;;;;;;;;;;;;;;;22.84;67.80;100157.22;1678526;83;21184;-86
2021/08/20 11:23:13;;;;;;;;;;;;;;;22.79;67.21;100145.52;1677682;83;20186;-84
2021/08/20 11:25:49;;;;;;;;;;;;;;;22.86;67.37;100159.14;1655021;83;20202;-84
2021/08/20 11:28:26;;;;;;;;;;;;;;;22.80;66.98;100157.39;1683572;83;20213;-85
2021/08/20 11:31:02;;;;;;;;;;;;;;;22.77;67.27;100145.75;1678577;83;21132;-83
2021/08/20 11:33:33;;;;;;;;;;;;;;;22.91;67.50;100146.31;1680951;83;20190;-85
2021/08/20 11:36:17;;;;;;;;;;;;;;;22.87;66.24;100155.40;1681438;83;20198;-85
2021/08/20 11:38:49;;;;;;;;;;;;;;;23.07;66.03;100146.08;1677733;83;20127;-84
2021/08/20 11:41:41;;;;;;;;;;;;;;;23.24;65.28;100147.52;1679261;83;20178;-82
2021/08/20 11:44:05;;;;;;;;;;;;;;;23.33;64.92;100150.66;1681752;83;20694;-87
2021/08/20 11:46:37;;;;;;;;;;;;;;;23.51;65.07;100160.41;1678994;83;20198;-86
2021/08/20 11:49:05;;;;;;;;;;;;;;;23.55;64.99;100147.55;1683984;83;20205;-86
2021/08/20 11:51:35;;;;;;;;;;;;;;;23.38;65.42;100151.55;1682757;83;20231;-87
2021/08/20 11:54:05;;;;;;;;;;;;;;;23.32;65.26;100154.41;1678684;83;20119;-84
2021/08/20 11:56:30;;;;;;;;;;;;;;;23.25;65.23;100154.02;1683277;83;21177;-84
2021/08/20 11:58:56;;;;;;;;;;;;;;;23.29;65.71;100155.19;1679525;84;20184;-88
2021/08/20 12:01:31;;;;;;;;;;;;;;;23.37;65.20;100157.19;1680597;83;20198;-91
2021/08/20 12:03:58;;;;;;;;;;;;;;;23.34;65.32;100152.28;1681984;84;20143;-89
2021/08/20 12:06:28;;;;;;;;;;;;;;;23.29;65.13;100136.32;1655872;83;20575;-90
2021/08/20 12:08:58;;;;;;;;;;;;;;;23.46;64.46;100142.27;1677077;83;20174;-88
2021/08/20 12:11:25;;;;;;;;;;;;;;;23.39;63.48;100144.31;1671944;83;20488;-87
2021/08/20 12:13:53;;;;;;;;;;;;;;;23.19;63.88;100145.55;1680480;84;20916;-86
2021/08/20 12:16:30;;;;;;;;;;;;;;;23.32;63.32;100133.69;1678536;83;21319;-87
2021/08/20 12:18:55;;;;;;;;;;;;;;;23.34;63.28;100137.45;1614396;87;20238;-89
2021/08/20 12:21:21;;;;;;;;;;;;;;;23.41;62.70;100139.48;1619547;88;21115;-89
2021/08/20 12:24:01;;;;;;;;;;;;;;;23.18;62.77;100128.27;1632314;87;20236;-90
2021/08/20 12:26:28;;;;;;;;;;;;;;;23.35;63.18;100134.52;1634441;86;20202;-89
2021/08/20 12:28:54;;;;;;;;;;;;;;;23.44;63.25;100139.00;1633718;87;20160;-89
2021/08/20 12:31:23;;;;;;;;;;;;;;;23.40;63.13;100140.53;1635148;86;20160;-85
2021/08/20 12:34:04;;;;;;;;;;;;;;;23.36;63.20;100135.36;1635805;87;21827;-85
2021/08/20 12:36:32;;;;;;;;;;;;;;;23.33;63.55;100131.80;1635583;87;20235;-87
2021/08/20 12:39:09;;;;;;;;;;;;;;;23.34;63.81;100126.68;1635177;87;20227;-85
2021/08/20 12:41:35;;;;;;;;;;;;;;;23.35;64.03;100123.74;1634573;86;20187;-85